sensor_id;sensor_type;location;lat;lon;timestamp;pressure;altitude;pressure_sealevel;temperature;humidity
66273;BME280;58450;52.150;4.466;2023-04-05T00:00:27;102553.97;;;5.24;100.00
66273;BME280;58450;52.150;4.466;2023-04-05T00:02:56;102550.03;;;5.17;100.00
66273;BME280;58450;52.150;4.466;2023-04-05T00:05:27;102539.78;;;5.24;100.00
66273;BME280;58450;52.150;4.466;2023-04-05T00:07:56;102545.34;;;5.21;100.00
66273;BME280;58450;52.150;4.466;2023-04-05T00:10:25;102531.56;;;5.14;100.00
66273;BME280;58450;52.150;4.466;2023-04-05T00:12:53;102535.94;;;5.15;100.00
66273;BME280;58450;52.150;4.466;2023-04-05T00:15:21;102536.50;;;5.07;100.00
66273;BME280;58450;52.150;4.466;2023-04-05T00:17:49;102533.16;;;5.03;100.00
66273;BME280;58450;52.150;4.466;2023-04-05T00:20:19;102532.44;;;5.01;100.00
66273;BME280;58450;52.150;4.466;2023-04-05T00:22:48;102531.38;;;5.04;100.00
66273;BME280;58450;52.150;4.466;2023-04-05T00:25:16;102521.75;;;5.01;100.00
66273;BME280;58450;52.150;4.466;2023-04-05T00:27:43;102526.03;;;5.04;100.00
66273;BME280;58450;52.150;4.466;2023-04-05T00:30:12;102525.38;;;5.00;100.00
66273;BME280;58450;52.150;4.466;2023-04-05T00:32:46;102534.47;;;4.98;100.00
66273;BME280;58450;52.150;4.466;2023-04-05T00:35:14;102527.31;;;4.98;100.00
66273;BME280;58450;52.150;4.466;2023-04-05T00:37:42;102526.34;;;4.99;100.00
66273;BME280;58450;52.150;4.466;2023-04-05T00:40:11;102521.88;;;5.00;100.00
66273;BME280;58450;52.150;4.466;2023-04-05T00:42:38;102522.53;;;4.91;100.00
66273;BME280;58450;52.150;4.466;2023-04-05T00:45:07;102530.75;;;4.87;100.00
66273;BME280;58450;52.150;4.466;2023-04-05T00:47:35;102511.53;;;4.82;100.00
66273;BME280;58450;52.150;4.466;2023-04-05T00:50:05;102511.00;;;4.77;100.00
66273;BME280;58450;52.150;4.466;2023-04-05T00:52:34;102515.81;;;4.72;100.00
66273;BME280;58450;52.150;4.466;2023-04-05T00:55:03;102510.06;;;4.65;100.00
66273;BME280;58450;52.150;4.466;2023-04-05T00:57:34;102510.91;;;4.66;100.00
66273;BME280;58450;52.150;4.466;2023-04-05T01:00:05;102507.41;;;4.65;100.00
66273;BME280;58450;52.150;4.466;2023-04-05T01:02:41;102501.84;;;4.68;100.00
66273;BME280;58450;52.150;4.466;2023-04-05T01:05:18;102500.13;;;4.67;100.00
66273;BME280;58450;52.150;4.466;2023-04-05T01:08:01;102497.78;;;4.63;100.00
66273;BME280;58450;52.150;4.466;2023-04-05T01:10:36;102494.28;;;4.62;100.00
66273;BME280;58450;52.150;4.466;2023-04-05T01:13:10;102496.19;;;4.60;100.00
66273;BME280;58450;52.150;4.466;2023-04-05T01:15:37;102501.81;;;4.55;100.00
66273;BME280;58450;52.150;4.466;2023-04-05T01:18:05;102498.31;;;4.68;100.00
66273;BME280;58450;52.150;4.466;2023-04-05T01:20:39;102490.94;;;4.58;100.00
66273;BME280;58450;52.150;4.466;2023-04-05T01:23:32;102491.06;;;4.57;100.00
66273;BME280;58450;52.150;4.466;2023-04-05T01:26:30;102488.94;;;4.62;100.00
66273;BME280;58450;52.150;4.466;2023-04-05T01:29:38;102489.56;;;4.53;100.00
66273;BME280;58450;52.150;4.466;2023-04-05T01:35:29;102481.13;;;4.46;100.00
66273;BME280;58450;52.150;4.466;2023-04-05T01:38:04;102490.31;;;4.42;100.00
66273;BME280;58450;52.150;4.466;2023-04-05T01:40:35;102481.59;;;4.40;100.00
66273;BME280;58450;52.150;4.466;2023-04-05T01:43:11;102478.06;;;4.39;100.00
66273;BME280;58450;52.150;4.466;2023-04-05T01:45:42;102476.75;;;4.45;100.00
66273;BME280;58450;52.150;4.466;2023-04-05T01:48:10;102468.75;;;4.45;100.00
66273;BME280;58450;52.150;4.466;2023-04-05T01:50:38;102468.88;;;4.43;100.00
66273;BME280;58450;52.150;4.466;2023-04-05T01:53:06;102465.25;;;4.44;100.00
66273;BME280;58450;52.150;4.466;2023-04-05T01:55:34;102471.34;;;4.47;100.00
66273;BME280;58450;52.150;4.466;2023-04-05T01:58:01;102460.13;;;4.41;100.00
66273;BME280;58450;52.150;4.466;2023-04-05T02:00:29;102460.47;;;4.37;100.00
66273;BME280;58450;52.150;4.466;2023-04-05T02:02:58;102456.19;;;4.34;100.00
66273;BME280;58450;52.150;4.466;2023-04-05T02:05:26;102447.44;;;4.32;100.00
66273;BME280;58450;52.150;4.466;2023-04-05T02:07:53;102446.06;;;4.26;100.00
66273;BME280;58450;52.150;4.466;2023-04-05T02:10:21;102440.41;;;4.31;100.00
66273;BME280;58450;52.150;4.466;2023-04-05T02:12:49;102440.53;;;4.29;100.00
66273;BME280;58450;52.150;4.466;2023-04-05T02:15:17;102427.41;;;4.26;100.00
66273;BME280;58450;52.150;4.466;2023-04-05T02:17:44;102424.75;;;4.26;100.00
66273;BME280;58450;52.150;4.466;2023-04-05T02:20:13;102429.88;;;4.29;100.00
66273;BME280;58450;52.150;4.466;2023-04-05T02:22:41;102426.56;;;4.26;100.00
66273;BME280;58450;52.150;4.466;2023-04-05T02:25:10;102430.19;;;4.25;100.00
66273;BME280;58450;52.150;4.466;2023-04-05T02:27:39;102426.75;;;4.23;100.00
66273;BME280;58450;52.150;4.466;2023-04-05T02:30:07;102427.84;;;4.20;100.00
66273;BME280;58450;52.150;4.466;2023-04-05T02:32:35;102430.81;;;4.16;100.00
66273;BME280;58450;52.150;4.466;2023-04-05T02:35:03;102427.50;;;4.12;100.00
66273;BME280;58450;52.150;4.466;2023-04-05T02:37:32;102426.66;;;4.11;100.00
66273;BME280;58450;52.150;4.466;2023-04-05T02:40:00;102429.63;;;4.07;100.00
66273;BME280;58450;52.150;4.466;2023-04-05T02:42:29;102423.22;;;4.09;100.00
66273;BME280;58450;52.150;4.466;2023-04-05T02:44:57;102427.41;;;4.01;100.00
66273;BME280;58450;52.150;4.466;2023-04-05T02:47:24;102427.81;;;4.07;100.00
66273;BME280;58450;52.150;4.466;2023-04-05T02:49:52;102416.31;;;4.07;100.00
66273;BME280;58450;52.150;4.466;2023-04-05T02:52:19;102418.13;;;4.06;100.00
66273;BME280;58450;52.150;4.466;2023-04-05T02:54:48;102418.97;;;4.20;100.00
66273;BME280;58450;52.150;4.466;2023-04-05T02:57:17;102416.31;;;4.20;100.00
66273;BME280;58450;52.150;4.466;2023-04-05T02:59:45;102417.41;;;4.17;100.00
66273;BME280;58450;52.150;4.466;2023-04-05T03:02:12;102409.91;;;4.09;100.00
66273;BME280;58450;52.150;4.466;2023-04-05T03:04:40;102408.94;;;4.10;100.00
66273;BME280;58450;52.150;4.466;2023-04-05T03:07:09;102406.28;;;4.10;100.00
66273;BME280;58450;52.150;4.466;2023-04-05T03:09:39;102404.03;;;4.04;100.00
66273;BME280;58450;52.150;4.466;2023-04-05T03:12:09;102404.59;;;4.09;100.00
66273;BME280;58450;52.150;4.466;2023-04-05T03:14:37;102406.50;;;4.07;100.00
66273;BME280;58450;52.150;4.466;2023-04-05T03:17:06;102412.38;;;3.99;100.00
66273;BME280;58450;52.150;4.466;2023-04-05T03:19:33;102418.22;;;4.05;100.00
66273;BME280;58450;52.150;4.466;2023-04-05T03:22:01;102418.09;;;3.93;100.00
66273;BME280;58450;52.150;4.466;2023-04-05T03:24:28;102416.94;;;3.84;100.00
66273;BME280;58450;52.150;4.466;2023-04-05T03:27:00;102416.81;;;3.86;100.00
66273;BME280;58450;52.150;4.466;2023-04-05T03:29:30;102412.56;;;3.83;100.00
66273;BME280;58450;52.150;4.466;2023-04-05T03:31:58;102407.44;;;3.80;100.00
66273;BME280;58450;52.150;4.466;2023-04-05T03:34:25;102404.25;;;3.75;100.00
66273;BME280;58450;52.150;4.466;2023-04-05T03:36:53;102400.81;;;3.73;100.00
66273;BME280;58450;52.150;4.466;2023-04-05T03:39:21;102397.50;;;3.69;100.00
66273;BME280;58450;52.150;4.466;2023-04-05T03:41:48;102389.84;;;3.65;100.00
66273;BME280;58450;52.150;4.466;2023-04-05T03:44:17;102385.34;;;3.65;100.00
66273;BME280;58450;52.150;4.466;2023-04-05T03:46:46;102381.31;;;3.60;100.00
66273;BME280;58450;52.150;4.466;2023-04-05T03:49:13;102384.50;;;3.65;100.00
66273;BME280;58450;52.150;4.466;2023-04-05T03:51:41;102379.41;;;3.62;100.00
66273;BME280;58450;52.150;4.466;2023-04-05T03:54:09;102381.50;;;3.57;100.00
66273;BME280;58450;52.150;4.466;2023-04-05T03:56:36;102383.84;;;3.61;100.00
66273;BME280;58450;52.150;4.466;2023-04-05T03:59:04;102387.88;;;3.54;100.00
66273;BME280;58450;52.150;4.466;2023-04-05T04:01:31;102384.81;;;3.60;100.00
66273;BME280;58450;52.150;4.466;2023-04-05T04:04:00;102382.25;;;3.59;100.00
66273;BME280;58450;52.150;4.466;2023-04-05T04:06:29;102382.34;;;3.57;100.00
66273;BME280;58450;52.150;4.466;2023-04-05T04:08:57;102378.63;;;3.47;100.00
66273;BME280;58450;52.150;4.466;2023-04-05T04:11:25;102381.28;;;3.47;100.00
66273;BME280;58450;52.150;4.466;2023-04-05T04:13:52;102377.75;;;3.46;100.00
66273;BME280;58450;52.150;4.466;2023-04-05T04:16:20;102370.50;;;3.35;100.00
66273;BME280;58450;52.150;4.466;2023-04-05T04:18:47;102379.88;;;3.41;100.00
66273;BME280;58450;52.150;4.466;2023-04-05T04:21:20;102377.00;;;3.44;100.00
66273;BME280;58450;52.150;4.466;2023-04-05T04:23:49;102383.69;;;3.37;100.00
66273;BME280;58450;52.150;4.466;2023-04-05T04:26:17;102384.00;;;3.32;100.00
66273;BME280;58450;52.150;4.466;2023-04-05T04:28:51;102376.03;;;3.32;100.00
66273;BME280;58450;52.150;4.466;2023-04-05T04:31:19;102375.34;;;3.29;100.00
66273;BME280;58450;52.150;4.466;2023-04-05T04:33:48;102382.59;;;3.27;100.00
66273;BME280;58450;52.150;4.466;2023-04-05T04:36:16;102372.50;;;3.32;100.00
66273;BME280;58450;52.150;4.466;2023-04-05T04:39:01;102374.59;;;3.27;100.00
66273;BME280;58450;52.150;4.466;2023-04-05T04:41:31;102381.94;;;3.23;100.00
66273;BME280;58450;52.150;4.466;2023-04-05T04:44:00;102369.94;;;3.30;100.00
66273;BME280;58450;52.150;4.466;2023-04-05T04:46:30;102367.78;;;3.22;100.00
66273;BME280;58450;52.150;4.466;2023-04-05T04:49:07;102379.28;;;3.23;100.00
66273;BME280;58450;52.150;4.466;2023-04-05T04:51:36;102375.75;;;3.22;100.00
66273;BME280;58450;52.150;4.466;2023-04-05T04:54:06;102370.84;;;3.16;100.00
66273;BME280;58450;52.150;4.466;2023-04-05T04:56:33;102371.16;;;3.12;100.00
66273;BME280;58450;52.150;4.466;2023-04-05T04:59:01;102367.34;;;3.16;100.00
66273;BME280;58450;52.150;4.466;2023-04-05T05:01:28;102362.63;;;3.06;100.00
66273;BME280;58450;52.150;4.466;2023-04-05T05:03:56;102367.09;;;3.06;100.00
66273;BME280;58450;52.150;4.466;2023-04-05T05:06:24;102375.84;;;3.08;100.00
66273;BME280;58450;52.150;4.466;2023-04-05T05:08:52;102376.97;;;3.04;100.00
66273;BME280;58450;52.150;4.466;2023-04-05T05:11:21;102378.94;;;3.15;100.00
66273;BME280;58450;52.150;4.466;2023-04-05T05:13:48;102375.59;;;3.11;100.00
66273;BME280;58450;52.150;4.466;2023-04-05T05:16:16;102381.47;;;3.16;100.00
66273;BME280;58450;52.150;4.466;2023-04-05T05:18:45;102383.09;;;3.19;100.00
66273;BME280;58450;52.150;4.466;2023-04-05T05:21:13;102377.19;;;3.28;100.00
66273;BME280;58450;52.150;4.466;2023-04-05T05:23:41;102385.78;;;3.32;100.00
66273;BME280;58450;52.150;4.466;2023-04-05T05:26:08;102386.34;;;3.37;100.00
66273;BME280;58450;52.150;4.466;2023-04-05T05:28:39;102388.72;;;3.42;100.00
66273;BME280;58450;52.150;4.466;2023-04-05T05:31:06;102387.66;;;3.44;100.00
66273;BME280;58450;52.150;4.466;2023-04-05T05:33:34;102392.69;;;3.49;100.00
66273;BME280;58450;52.150;4.466;2023-04-05T05:36:01;102389.16;;;3.48;100.00
66273;BME280;58450;52.150;4.466;2023-04-05T05:38:29;102393.88;;;3.58;100.00
66273;BME280;58450;52.150;4.466;2023-04-05T05:40:57;102397.38;;;3.58;100.00
66273;BME280;58450;52.150;4.466;2023-04-05T05:43:24;102396.25;;;3.75;100.00
66273;BME280;58450;52.150;4.466;2023-04-05T05:45:53;102393.78;;;3.72;100.00
66273;BME280;58450;52.150;4.466;2023-04-05T05:48:21;102399.34;;;3.82;100.00
66273;BME280;58450;52.150;4.466;2023-04-05T05:50:48;102398.63;;;3.93;100.00
66273;BME280;58450;52.150;4.466;2023-04-05T05:53:16;102403.09;;;4.05;100.00
66273;BME280;58450;52.150;4.466;2023-04-05T05:55:43;102401.41;;;4.30;100.00
66273;BME280;58450;52.150;4.466;2023-04-05T05:58:11;102395.53;;;4.51;100.00
66273;BME280;58450;52.150;4.466;2023-04-05T06:00:39;102397.63;;;4.71;100.00
66273;BME280;58450;52.150;4.466;2023-04-05T06:03:07;102390.31;;;4.86;100.00
66273;BME280;58450;52.150;4.466;2023-04-05T06:05:35;102393.06;;;4.98;100.00
66273;BME280;58450;52.150;4.466;2023-04-05T06:08:03;102387.56;;;5.12;100.00
66273;BME280;58450;52.150;4.466;2023-04-05T06:10:31;102385.06;;;5.22;100.00
66273;BME280;58450;52.150;4.466;2023-04-05T06:12:58;102387.09;;;5.43;100.00
66273;BME280;58450;52.150;4.466;2023-04-05T06:15:26;102388.63;;;5.58;100.00
66273;BME280;58450;52.150;4.466;2023-04-05T06:17:53;102388.44;;;5.84;100.00
66273;BME280;58450;52.150;4.466;2023-04-05T06:20:22;102383.41;;;6.04;100.00
66273;BME280;58450;52.150;4.466;2023-04-05T06:22:50;102382.22;;;6.08;100.00
66273;BME280;58450;52.150;4.466;2023-04-05T06:25:17;102380.03;;;6.25;100.00
66273;BME280;58450;52.150;4.466;2023-04-05T06:27:45;102373.25;;;6.32;100.00
66273;BME280;58450;52.150;4.466;2023-04-05T06:30:13;102377.25;;;6.38;100.00
66273;BME280;58450;52.150;4.466;2023-04-05T06:32:41;102379.19;;;6.47;100.00
66273;BME280;58450;52.150;4.466;2023-04-05T06:35:08;102373.84;;;6.58;100.00
66273;BME280;58450;52.150;4.466;2023-04-05T06:37:37;102381.38;;;6.64;100.00
66273;BME280;58450;52.150;4.466;2023-04-05T06:40:06;102384.41;;;6.71;100.00
66273;BME280;58450;52.150;4.466;2023-04-05T06:42:34;102381.38;;;6.53;100.00
66273;BME280;58450;52.150;4.466;2023-04-05T06:45:02;102375.53;;;6.48;100.00
66273;BME280;58450;52.150;4.466;2023-04-05T06:47:32;102371.41;;;6.32;100.00
66273;BME280;58450;52.150;4.466;2023-04-05T06:50:00;102367.88;;;6.20;100.00
66273;BME280;58450;52.150;4.466;2023-04-05T06:52:28;102369.59;;;6.44;100.00
66273;BME280;58450;52.150;4.466;2023-04-05T06:54:57;102370.69;;;6.64;100.00
66273;BME280;58450;52.150;4.466;2023-04-05T06:57:25;102372.34;;;6.88;100.00
66273;BME280;58450;52.150;4.466;2023-04-05T06:59:53;102380.91;;;7.15;100.00
66273;BME280;58450;52.150;4.466;2023-04-05T07:02:21;102370.59;;;7.43;100.00
66273;BME280;58450;52.150;4.466;2023-04-05T07:04:48;102382.50;;;7.50;100.00
66273;BME280;58450;52.150;4.466;2023-04-05T07:07:16;102372.41;;;7.63;97.70
66273;BME280;58450;52.150;4.466;2023-04-05T07:09:43;102381.72;;;7.80;96.68
66273;BME280;58450;52.150;4.466;2023-04-05T07:12:12;102388.53;;;7.84;96.03
66273;BME280;58450;52.150;4.466;2023-04-05T07:14:40;102377.00;;;8.15;96.78
66273;BME280;58450;52.150;4.466;2023-04-05T07:17:07;102364.59;;;8.24;94.14
66273;BME280;58450;52.150;4.466;2023-04-05T07:19:35;102369.69;;;8.27;92.62
66273;BME280;58450;52.150;4.466;2023-04-05T07:22:02;102371.09;;;8.52;92.64
66273;BME280;58450;52.150;4.466;2023-04-05T07:24:30;102371.66;;;8.97;90.55
66273;BME280;58450;52.150;4.466;2023-04-05T07:26:57;102373.22;;;9.39;88.35
66273;BME280;58450;52.150;4.466;2023-04-05T07:29:26;102369.78;;;9.86;86.60
66273;BME280;58450;52.150;4.466;2023-04-05T07:31:54;102369.03;;;10.51;83.88
66273;BME280;58450;52.150;4.466;2023-04-05T07:34:21;102361.66;;;10.81;78.64
66273;BME280;58450;52.150;4.466;2023-04-05T07:36:49;102356.53;;;11.24;76.21
66273;BME280;58450;52.150;4.466;2023-04-05T07:39:17;102358.22;;;11.70;71.37
66273;BME280;58450;52.150;4.466;2023-04-05T07:41:45;102361.91;;;11.42;69.23
66273;BME280;58450;52.150;4.466;2023-04-05T07:44:12;102354.25;;;11.56;66.60
66273;BME280;58450;52.150;4.466;2023-04-05T07:46:41;102357.97;;;11.81;67.34
66273;BME280;58450;52.150;4.466;2023-04-05T07:49:09;102355.84;;;11.22;62.55
66273;BME280;58450;52.150;4.466;2023-04-05T07:51:37;102355.34;;;10.90;64.02
66273;BME280;58450;52.150;4.466;2023-04-05T07:54:05;102351.69;;;10.63;61.88
66273;BME280;58450;52.150;4.466;2023-04-05T07:56:32;102347.13;;;11.28;63.79
66273;BME280;58450;52.150;4.466;2023-04-05T07:59:00;102349.00;;;12.25;64.24
66273;BME280;58450;52.150;4.466;2023-04-05T08:01:27;102347.13;;;12.60;61.78
66273;BME280;58450;52.150;4.466;2023-04-05T08:03:57;102345.56;;;12.57;61.23
66273;BME280;58450;52.150;4.466;2023-04-05T08:06:25;102345.41;;;12.51;59.41
66273;BME280;58450;52.150;4.466;2023-04-05T08:08:53;102351.28;;;12.11;58.94
66273;BME280;58450;52.150;4.466;2023-04-05T08:11:20;102350.97;;;12.15;60.63
66273;BME280;58450;52.150;4.466;2023-04-05T08:13:48;102348.53;;;12.89;61.22
66273;BME280;58450;52.150;4.466;2023-04-05T08:16:16;102346.38;;;12.93;57.56
66273;BME280;58450;52.150;4.466;2023-04-05T08:18:43;102350.16;;;13.41;57.09
66273;BME280;58450;52.150;4.466;2023-04-05T08:21:12;102347.06;;;13.36;52.98
66273;BME280;58450;52.150;4.466;2023-04-05T08:23:40;102339.00;;;13.44;54.10
66273;BME280;58450;52.150;4.466;2023-04-05T08:26:07;102343.56;;;13.69;55.17
66273;BME280;58450;52.150;4.466;2023-04-05T08:28:35;102347.09;;;13.69;55.25
66273;BME280;58450;52.150;4.466;2023-04-05T08:31:02;102343.44;;;12.69;52.88
66273;BME280;58450;52.150;4.466;2023-04-05T08:33:30;102349.59;;;13.05;52.56
66273;BME280;58450;52.150;4.466;2023-04-05T08:36:03;102342.03;;;13.50;54.03
66273;BME280;58450;52.150;4.466;2023-04-05T08:38:32;102340.09;;;14.08;53.27
66273;BME280;58450;52.150;4.466;2023-04-05T08:41:06;102334.84;;;14.86;52.38
66273;BME280;58450;52.150;4.466;2023-04-05T08:43:46;102335.81;;;15.40;51.80
66273;BME280;58450;52.150;4.466;2023-04-05T08:46:23;102341.00;;;14.40;50.84
66273;BME280;58450;52.150;4.466;2023-04-05T08:48:51;102332.59;;;14.18;50.94
66273;BME280;58450;52.150;4.466;2023-04-05T08:51:19;102333.06;;;14.70;50.47
66273;BME280;58450;52.150;4.466;2023-04-05T08:53:49;102339.78;;;15.06;50.16
66273;BME280;58450;52.150;4.466;2023-04-05T08:56:19;102329.66;;;15.46;48.29
66273;BME280;58450;52.150;4.466;2023-04-05T08:58:56;102335.50;;;15.35;48.60
66273;BME280;58450;52.150;4.466;2023-04-05T09:01:29;102332.81;;;14.88;47.55
66273;BME280;58450;52.150;4.466;2023-04-05T09:04:00;102333.47;;;15.52;47.39
66273;BME280;58450;52.150;4.466;2023-04-05T09:06:31;102329.19;;;15.43;46.28
66273;BME280;58450;52.150;4.466;2023-04-05T09:09:05;102329.63;;;15.31;45.11
66273;BME280;58450;52.150;4.466;2023-04-05T09:11:34;102331.44;;;15.16;45.49
66273;BME280;58450;52.150;4.466;2023-04-05T09:14:02;102329.59;;;14.85;45.29
66273;BME280;58450;52.150;4.466;2023-04-05T09:16:31;102324.13;;;14.61;44.79
66273;BME280;58450;52.150;4.466;2023-04-05T09:19:00;102332.34;;;13.88;42.65
66273;BME280;58450;52.150;4.466;2023-04-05T09:21:27;102328.47;;;13.91;42.46
66273;BME280;58450;52.150;4.466;2023-04-05T09:23:55;102320.34;;;13.91;42.37
66273;BME280;58450;52.150;4.466;2023-04-05T09:26:24;102318.88;;;14.20;43.13
66273;BME280;58450;52.150;4.466;2023-04-05T09:28:52;102319.31;;;14.40;43.63
66273;BME280;58450;52.150;4.466;2023-04-05T09:31:29;102317.16;;;14.27;43.19
66273;BME280;58450;52.150;4.466;2023-04-05T09:33:58;102317.91;;;14.13;41.87
66273;BME280;58450;52.150;4.466;2023-04-05T09:36:29;102316.44;;;13.94;42.99
66273;BME280;58450;52.150;4.466;2023-04-05T09:39:06;102316.91;;;14.54;42.78
66273;BME280;58450;52.150;4.466;2023-04-05T09:41:35;102312.50;;;15.46;41.92
66273;BME280;58450;52.150;4.466;2023-04-05T09:44:04;102312.06;;;15.95;40.82
66273;BME280;58450;52.150;4.466;2023-04-05T09:46:33;102320.78;;;14.51;38.57
66273;BME280;58450;52.150;4.466;2023-04-05T09:49:02;102318.06;;;14.19;39.32
66273;BME280;58450;52.150;4.466;2023-04-05T09:51:33;102324.28;;;13.64;39.84
66273;BME280;58450;52.150;4.466;2023-04-05T09:54:03;102321.25;;;13.50;41.02
66273;BME280;58450;52.150;4.466;2023-04-05T09:56:32;102314.91;;;13.99;41.77
66273;BME280;58450;52.150;4.466;2023-04-05T09:59:06;102313.16;;;14.15;42.45
66273;BME280;58450;52.150;4.466;2023-04-05T10:01:35;102313.59;;;14.35;40.14
66273;BME280;58450;52.150;4.466;2023-04-05T10:04:03;102313.06;;;13.92;40.64
66273;BME280;58450;52.150;4.466;2023-04-05T10:06:35;102304.66;;;14.26;41.33
66273;BME280;58450;52.150;4.466;2023-04-05T10:09:04;102296.41;;;15.29;41.19
66273;BME280;58450;52.150;4.466;2023-04-05T10:11:35;102291.53;;;15.93;41.52
66273;BME280;58450;52.150;4.466;2023-04-05T10:14:05;102292.53;;;15.62;39.36
66273;BME280;58450;52.150;4.466;2023-04-05T10:16:37;102284.81;;;16.04;40.14
66273;BME280;58450;52.150;4.466;2023-04-05T10:19:15;102282.44;;;16.16;40.00
66273;BME280;58450;52.150;4.466;2023-04-05T10:21:53;102286.94;;;16.23;40.77
66273;BME280;58450;52.150;4.466;2023-04-05T10:24:33;102287.06;;;16.52;40.65
66273;BME280;58450;52.150;4.466;2023-04-05T10:27:22;102283.47;;;16.15;40.31
66273;BME280;58450;52.150;4.466;2023-04-05T10:30:02;102281.25;;;16.03;39.57
66273;BME280;58450;52.150;4.466;2023-04-05T10:32:43;102282.66;;;15.46;39.81
66273;BME280;58450;52.150;4.466;2023-04-05T10:35:23;102280.09;;;15.68;40.75
66273;BME280;58450;52.150;4.466;2023-04-05T10:38:10;102281.88;;;16.35;41.25
66273;BME280;58450;52.150;4.466;2023-04-05T10:40:46;102283.34;;;16.38;39.08
66273;BME280;58450;52.150;4.466;2023-04-05T10:43:19;102277.28;;;16.73;38.97
66273;BME280;58450;52.150;4.466;2023-04-05T10:45:51;102279.72;;;16.89;39.84
66273;BME280;58450;52.150;4.466;2023-04-05T10:48:27;102274.28;;;16.31;38.06
66273;BME280;58450;52.150;4.466;2023-04-05T10:51:03;102261.97;;;16.50;37.87
66273;BME280;58450;52.150;4.466;2023-04-05T10:53:31;102269.00;;;15.92;38.17
66273;BME280;58450;52.150;4.466;2023-04-05T10:56:00;102258.28;;;16.21;38.61
66273;BME280;58450;52.150;4.466;2023-04-05T10:58:30;102257.38;;;15.99;37.98
66273;BME280;58450;52.150;4.466;2023-04-05T11:00:59;102264.31;;;16.53;38.64
66273;BME280;58450;52.150;4.466;2023-04-05T11:03:44;102268.00;;;16.89;38.13
66273;BME280;58450;52.150;4.466;2023-04-05T11:06:21;102260.13;;;17.16;37.94
66273;BME280;58450;52.150;4.466;2023-04-05T11:08:59;102256.06;;;16.46;36.90
66273;BME280;58450;52.150;4.466;2023-04-05T11:11:38;102254.09;;;16.55;37.96
66273;BME280;58450;52.150;4.466;2023-04-05T11:14:18;102260.94;;;17.45;36.53
66273;BME280;58450;52.150;4.466;2023-04-05T11:16:48;102255.91;;;18.12;36.43
66273;BME280;58450;52.150;4.466;2023-04-05T11:19:19;102252.09;;;18.68;36.89
66273;BME280;58450;52.150;4.466;2023-04-05T11:21:59;102247.53;;;19.09;35.84
66273;BME280;58450;52.150;4.466;2023-04-05T11:24:50;102256.75;;;17.13;35.05
66273;BME280;58450;52.150;4.466;2023-04-05T11:27:26;102250.88;;;16.15;35.91
66273;BME280;58450;52.150;4.466;2023-04-05T11:29:56;102246.09;;;16.32;36.75
66273;BME280;58450;52.150;4.466;2023-04-05T11:32:37;102239.31;;;16.86;38.22
66273;BME280;58450;52.150;4.466;2023-04-05T11:35:11;102229.16;;;16.95;38.08
66273;BME280;58450;52.150;4.466;2023-04-05T11:37:53;102232.47;;;17.76;37.56
66273;BME280;58450;52.150;4.466;2023-04-05T11:40:28;102222.84;;;18.28;36.16
66273;BME280;58450;52.150;4.466;2023-04-05T11:43:01;102228.34;;;18.42;36.31
66273;BME280;58450;52.150;4.466;2023-04-05T11:45:33;102227.81;;;18.94;35.99
66273;BME280;58450;52.150;4.466;2023-04-05T11:48:04;102215.28;;;18.17;34.04
66273;BME280;58450;52.150;4.466;2023-04-05T11:50:33;102222.06;;;17.86;35.57
66273;BME280;58450;52.150;4.466;2023-04-05T11:53:11;102217.66;;;17.50;34.66
66273;BME280;58450;52.150;4.466;2023-04-05T11:55:42;102213.13;;;17.28;35.15
66273;BME280;58450;52.150;4.466;2023-04-05T11:58:12;102210.38;;;17.99;35.95
66273;BME280;58450;52.150;4.466;2023-04-05T12:00:43;102207.91;;;16.40;36.13
66273;BME280;58450;52.150;4.466;2023-04-05T12:03:12;102199.06;;;16.96;37.12
66273;BME280;58450;52.150;4.466;2023-04-05T12:05:47;102195.63;;;17.38;35.43
66273;BME280;58450;52.150;4.466;2023-04-05T12:08:16;102199.47;;;17.50;36.31
66273;BME280;58450;52.150;4.466;2023-04-05T12:10:44;102197.66;;;17.71;35.28
66273;BME280;58450;52.150;4.466;2023-04-05T12:13:27;102191.47;;;17.13;35.05
66273;BME280;58450;52.150;4.466;2023-04-05T12:15:58;102190.06;;;17.24;35.30
66273;BME280;58450;52.150;4.466;2023-04-05T12:18:28;102185.72;;;18.14;35.38
66273;BME280;58450;52.150;4.466;2023-04-05T12:20:57;102186.25;;;18.92;34.21
66273;BME280;58450;52.150;4.466;2023-04-05T12:23:25;102184.59;;;19.83;33.37
66273;BME280;58450;52.150;4.466;2023-04-05T12:25:54;102185.53;;;19.50;32.04
66273;BME280;58450;52.150;4.466;2023-04-05T12:28:22;102185.00;;;19.21;32.66
66273;BME280;58450;52.150;4.466;2023-04-05T12:30:50;102191.09;;;19.03;34.40
66273;BME280;58450;52.150;4.466;2023-04-05T12:33:27;102185.75;;;18.27;36.55
66273;BME280;58450;52.150;4.466;2023-04-05T12:35:55;102184.78;;;19.16;36.71
66273;BME280;58450;52.150;4.466;2023-04-05T12:38:24;102181.84;;;19.11;35.81
66273;BME280;58450;52.150;4.466;2023-04-05T12:40:53;102182.28;;;19.21;36.50
66273;BME280;58450;52.150;4.466;2023-04-05T12:43:21;102169.28;;;17.94;38.52
66273;BME280;58450;52.150;4.466;2023-04-05T12:45:52;102174.03;;;18.27;38.82
66273;BME280;58450;52.150;4.466;2023-04-05T12:48:23;102172.41;;;18.86;37.97
66273;BME280;58450;52.150;4.466;2023-04-05T12:50:53;102172.03;;;19.75;37.43
66273;BME280;58450;52.150;4.466;2023-04-05T12:53:22;102164.97;;;20.71;36.03
66273;BME280;58450;52.150;4.466;2023-04-05T12:55:54;102169.28;;;21.10;35.25
66273;BME280;58450;52.150;4.466;2023-04-05T12:58:31;102160.09;;;20.15;35.38
66273;BME280;58450;52.150;4.466;2023-04-05T13:01:01;102164.81;;;17.37;38.89
66273;BME280;58450;52.150;4.466;2023-04-05T13:03:29;102159.97;;;18.23;39.17
66273;BME280;58450;52.150;4.466;2023-04-05T13:05:58;102157.22;;;18.10;38.24
66273;BME280;58450;52.150;4.466;2023-04-05T13:08:25;102154.09;;;17.64;38.91